TimeEST,TemperatureF,Dew PointF,Humidity,Sea Level PressureIn,VisibilityMPH,Wind Direction,Wind SpeedMPH,Gust SpeedMPH,PrecipitationIn,Events,Conditions,WindDirDegrees,DateUTC
12:15 AM,26.6,10.4,51,29.71,10.0,West,12.7,20.7,N/A,,Clear,280,2013-11-24 05:15:00
12:35 AM,26.6,8.6,47,29.71,10.0,West,15.0,19.6,N/A,,Clear,280,2013-11-24 05:35:00
12:55 AM,26.6,12.2,55,29.71,10.0,West,12.7,21.9,N/A,,Clear,280,2013-11-24 05:55:00
1:15 AM,26.6,8.6,47,29.71,10.0,WNW,12.7,20.7,N/A,,Clear,290,2013-11-24 06:15:00
1:35 AM,26.6,14.0,59,29.71,10.0,WNW,17.3,23.0,N/A,,Clear,290,2013-11-24 06:35:00
1:55 AM,26.6,8.6,47,29.71,10.0,West,13.8,27.6,N/A,,Clear,280,2013-11-24 06:55:00
2:15 AM,24.8,10.4,54,29.71,10.0,NW,18.4,24.2,N/A,,Clear,310,2013-11-24 07:15:00
2:35 AM,24.8,8.6,50,29.72,10.0,WNW,16.1,26.5,N/A,,Clear,300,2013-11-24 07:35:00
2:55 AM,24.8,6.8,46,29.71,10.0,WNW,15.0,34.5,N/A,,Clear,290,2013-11-24 07:55:00
3:15 AM,23.0,6.8,50,29.72,10.0,West,13.8,28.8,N/A,,Clear,280,2013-11-24 08:15:00
3:35 AM,21.2,5.0,50,29.72,10.0,WNW,17.3,27.6,N/A,,Clear,290,2013-11-24 08:35:00
3:55 AM,21.2,3.2,46,29.73,10.0,WNW,16.1,26.5,N/A,,Scattered Clouds,290,2013-11-24 08:55:00
4:15 AM,21.2,5.0,50,29.73,10.0,WNW,12.7,28.8,N/A,,Mostly Cloudy,300,2013-11-24 09:15:00
4:35 AM,21.2,3.2,46,29.74,10.0,WNW,15.0,24.2,N/A,,Scattered Clouds,300,2013-11-24 09:35:00
4:55 AM,21.2,3.2,46,29.74,10.0,NNW,18.4,23.0,N/A,,Clear,330,2013-11-24 09:55:00
5:15 AM,21.2,1.4,42,29.75,10.0,NW,20.7,27.6,N/A,,Clear,310,2013-11-24 10:15:00
5:35 AM,21.2,3.2,46,29.74,10.0,NW,20.7,26.5,N/A,,Clear,320,2013-11-24 10:35:00
5:55 AM,21.2,1.4,42,29.75,10.0,NW,16.1,31.1,N/A,,Clear,310,2013-11-24 10:55:00
6:15 AM,21.2,1.4,42,29.75,10.0,WNW,20.7,29.9,N/A,,Clear,300,2013-11-24 11:15:00
6:35 AM,19.4,-0.4,42,29.75,10.0,West,15.0,23.0,N/A,,Clear,280,2013-11-24 11:35:00
6:55 AM,19.4,1.4,46,29.76,10.0,WNW,11.5,25.3,N/A,,Clear,300,2013-11-24 11:55:00
7:15 AM,19.4,1.4,46,29.77,10.0,WNW,12.7,21.9,N/A,,Clear,290,2013-11-24 12:15:00
7:35 AM,21.2,1.4,42,29.76,10.0,West,17.3,28.8,N/A,,Partly Cloudy,280,2013-11-24 12:35:00
7:55 AM,21.2,6.8,54,29.77,10.0,West,19.6,29.9,N/A,,Partly Cloudy,280,2013-11-24 12:55:00
8:15 AM,21.2,1.4,42,29.77,10.0,West,20.7,29.9,N/A,,Clear,280,2013-11-24 13:15:00
8:35 AM,21.2,3.2,46,29.78,10.0,WNW,23.0,32.2,N/A,,Partly Cloudy,290,2013-11-24 13:35:00
8:55 AM,21.2,1.4,42,29.78,10.0,WNW,27.6,34.5,N/A,,Partly Cloudy,290,2013-11-24 13:55:00
9:15 AM,21.2,1.4,42,29.78,10.0,West,23.0,36.8,N/A,,Clear,280,2013-11-24 14:15:00
9:35 AM,21.2,1.4,42,29.78,10.0,WNW,23.0,33.4,N/A,,Clear,290,2013-11-24 14:35:00
9:55 AM,23.0,1.4,39,29.78,10.0,West,25.3,32.2,N/A,,Clear,280,2013-11-24 14:55:00
10:15 AM,23.0,1.4,39,29.79,10.0,NW,19.6,31.1,N/A,,Clear,310,2013-11-24 15:15:00
10:35 AM,23.0,-0.4,36,29.79,10.0,WNW,21.9,34.5,N/A,,Clear,300,2013-11-24 15:35:00
10:55 AM,23.0,1.4,39,29.78,10.0,WNW,25.3,32.2,N/A,,Partly Cloudy,290,2013-11-24 15:55:00
11:15 AM,23.0,-0.4,36,29.78,10.0,WNW,19.6,36.8,N/A,,Clear,300,2013-11-24 16:15:00
11:35 AM,23.0,1.4,39,29.79,10.0,WNW,24.2,39.1,N/A,,Clear,290,2013-11-24 16:35:00
11:55 AM,23.0,-0.4,36,29.80,10.0,West,21.9,33.4,N/A,,Clear,280,2013-11-24 16:55:00
12:15 PM,23.0,-0.4,36,29.80,10.0,WNW,18.4,36.8,N/A,,Partly Cloudy,290,2013-11-24 17:15:00
12:35 PM,24.8,-0.4,34,29.80,10.0,WNW,18.4,33.4,N/A,,Partly Cloudy,290,2013-11-24 17:35:00
12:55 PM,23.0,-0.4,36,29.80,10.0,WNW,20.7,34.5,N/A,,Clear,290,2013-11-24 17:55:00
1:15 PM,23.0,-0.4,36,29.81,10.0,NW,19.6,33.4,N/A,,Clear,310,2013-11-24 18:15:00
1:35 PM,23.0,-0.4,36,29.81,10.0,WNW,26.5,42.6,N/A,,Clear,300,2013-11-24 18:35:00
1:55 PM,23.0,-0.4,36,29.82,10.0,WNW,28.8,40.3,N/A,,Clear,290,2013-11-24 18:55:00
2:15 PM,23.0,-2.2,33,29.83,10.0,WNW,26.5,43.7,N/A,,Clear,300,2013-11-24 19:15:00
2:35 PM,21.2,-0.4,39,29.83,10.0,West,24.2,34.5,N/A,,Clear,280,2013-11-24 19:35:00
2:55 PM,21.2,-2.2,36,29.85,10.0,NW,24.2,34.5,N/A,,Clear,310,2013-11-24 19:55:00
3:15 PM,21.2,-2.2,36,29.86,10.0,WNW,25.3,41.4,N/A,,Clear,300,2013-11-24 20:15:00
3:35 PM,21.2,-2.2,36,29.87,10.0,NW,19.6,38.0,N/A,,Clear,310,2013-11-24 20:35:00
3:55 PM,21.2,-2.2,36,29.88,10.0,WNW,17.3,31.1,N/A,,Clear,290,2013-11-24 20:55:00
4:15 PM,21.2,-0.4,39,29.89,10.0,WNW,18.4,34.5,N/A,,Partly Cloudy,300,2013-11-24 21:15:00
4:35 PM,19.4,-2.2,39,29.90,10.0,WNW,16.1,32.2,N/A,,Partly Cloudy,300,2013-11-24 21:35:00
4:55 PM,19.4,-0.4,42,29.90,10.0,WNW,18.4,32.2,N/A,,Clear,290,2013-11-24 21:55:00
5:15 PM,19.4,-0.4,42,29.91,10.0,WNW,19.6,32.2,N/A,,Clear,300,2013-11-24 22:15:00
5:35 PM,21.2,-2.2,36,29.91,10.0,WNW,20.7,29.9,N/A,,Clear,290,2013-11-24 22:35:00
5:55 PM,21.2,-0.4,39,29.92,10.0,WNW,23.0,32.2,N/A,,Clear,300,2013-11-24 22:55:00
6:15 PM,21.2,-2.2,36,29.93,10.0,WNW,24.2,35.7,N/A,,Clear,290,2013-11-24 23:15:00
6:35 PM,21.2,-0.4,39,29.93,10.0,WNW,25.3,34.5,N/A,,Clear,290,2013-11-24 23:35:00
6:55 PM,19.4,-2.2,39,29.94,10.0,West,24.2,35.7,N/A,,Clear,280,2013-11-24 23:55:00
7:15 PM,19.4,-2.2,39,29.95,10.0,WNW,16.1,31.1,N/A,,Clear,300,2013-11-25 00:15:00
7:35 PM,19.4,-2.2,39,29.95,10.0,WNW,20.7,36.8,N/A,,Clear,290,2013-11-25 00:35:00
7:55 PM,19.4,-4.0,36,29.96,10.0,WNW,24.2,33.4,N/A,,Clear,290,2013-11-25 00:55:00
8:15 PM,19.4,-2.2,39,29.97,10.0,WNW,19.6,39.1,N/A,,Clear,290,2013-11-25 01:15:00
8:35 PM,19.4,-2.2,39,29.97,10.0,WNW,23.0,33.4,N/A,,Clear,290,2013-11-25 01:35:00
8:55 PM,19.4,-4.0,36,29.98,10.0,WNW,20.7,38.0,N/A,,Clear,300,2013-11-25 01:55:00
9:15 PM,19.4,-0.4,42,29.99,10.0,WNW,15.0,34.5,N/A,,Clear,290,2013-11-25 02:15:00
9:35 PM,19.4,-2.2,39,29.99,10.0,WNW,21.9,36.8,N/A,,Clear,300,2013-11-25 02:35:00
9:55 PM,19.4,-2.2,39,30.00,10.0,WNW,19.6,39.1,N/A,,Clear,290,2013-11-25 02:55:00
10:15 PM,19.4,-0.4,42,30.02,10.0,WNW,20.7,29.9,N/A,,Clear,290,2013-11-25 03:15:00
10:35 PM,19.4,-0.4,42,30.03,10.0,WNW,21.9,31.1,N/A,,Clear,290,2013-11-25 03:35:00
10:55 PM,17.6,-0.4,45,30.03,10.0,WNW,18.4,34.5,N/A,,Clear,300,2013-11-25 03:55:00
11:15 PM,17.6,-0.4,45,30.05,10.0,WNW,16.1,28.8,N/A,,Clear,290,2013-11-25 04:15:00
11:35 PM,17.6,-0.4,45,30.06,10.0,West,12.7,21.9,N/A,,Clear,270,2013-11-25 04:35:00
11:55 PM,17.6,1.4,49,30.08,10.0,West,13.8,27.6,N/A,,Clear,280,2013-11-25 04:55:00